createdAt,value
2018-03-11T00:03:52.571Z,11.87
2018-03-11T00:08:55.085Z,11.40
2018-03-11T00:13:57.559Z,11.83
2018-03-11T00:19:00.068Z,12.07
2018-03-11T00:24:02.536Z,11.17
2018-03-11T00:29:05.012Z,11.17
2018-03-11T00:34:07.510Z,11.90
2018-03-11T00:39:09.993Z,11.43
2018-03-11T00:44:12.467Z,11.70
2018-03-11T00:49:14.956Z,11.10
2018-03-11T00:54:17.444Z,11.87
2018-03-11T00:59:19.911Z,12.47
2018-03-11T01:04:22.396Z,12.23
2018-03-11T01:09:24.869Z,11.17
2018-03-11T01:14:27.333Z,12.33
2018-03-11T01:19:29.844Z,11.50
2018-03-11T01:24:32.320Z,12.67
2018-03-11T01:29:34.788Z,12.33
2018-03-11T01:34:37.283Z,12.70
2018-03-11T01:39:39.808Z,12.20
2018-03-11T01:44:42.280Z,12.13
2018-03-11T01:49:44.792Z,12.40
2018-03-11T01:54:47.260Z,12.70
2018-03-11T01:59:49.744Z,13.37
2018-03-11T02:04:52.299Z,12.70
2018-03-11T02:09:54.780Z,13.90
2018-03-11T02:14:57.240Z,13.47
2018-03-11T02:19:59.720Z,14.93
2018-03-11T02:25:02.178Z,13.63
2018-03-11T02:30:04.641Z,14.73
2018-03-11T02:35:07.104Z,14.90
2018-03-11T02:40:09.580Z,15.00
2018-03-11T02:45:12.057Z,17.37
2018-03-11T02:50:14.572Z,17.20
2018-03-11T02:55:17.046Z,17.53
2018-03-11T03:00:19.557Z,17.93
2018-03-11T03:05:22.032Z,16.73
2018-03-11T03:10:24.522Z,19.90
2018-03-11T03:15:27.127Z,20.93
2018-03-11T03:20:29.594Z,20.60
2018-03-11T03:25:32.075Z,20.83
2018-03-11T03:30:34.554Z,20.33
2018-03-11T03:35:37.053Z,20.37
2018-03-11T03:40:39.592Z,22.53
2018-03-11T03:45:42.091Z,19.73
2018-03-11T03:50:44.544Z,18.53
2018-03-11T03:55:47.028Z,31.67
2018-03-11T04:00:50.318Z,27.73
2018-03-11T04:05:52.788Z,32.70
2018-03-11T04:10:55.267Z,34.27
2018-03-11T04:15:57.734Z,38.30
2018-03-11T04:21:00.201Z,30.87
2018-03-11T04:26:02.710Z,34.47
2018-03-11T04:31:05.179Z,31.83
2018-03-11T04:36:07.676Z,29.53
2018-03-11T04:41:10.166Z,36.23
2018-03-11T04:46:13.614Z,33.70
2018-03-11T04:51:16.115Z,33.57
2018-03-11T04:56:18.588Z,32.63
2018-03-11T05:01:21.068Z,30.53
2018-03-11T05:06:23.575Z,34.70
2018-03-11T05:11:26.045Z,31.70
2018-03-11T05:16:28.525Z,42.20
2018-03-11T05:21:31.006Z,33.13
2018-03-11T05:26:33.494Z,30.10
2018-03-11T05:31:35.961Z,34.07
2018-03-11T05:36:38.446Z,26.50
2018-03-11T05:41:40.904Z,23.13
2018-03-11T05:46:43.397Z,26.37
2018-03-11T05:51:45.844Z,22.70
2018-03-11T05:56:48.343Z,24.20
2018-03-11T06:01:50.840Z,25.27
2018-03-11T06:06:53.312Z,23.33
2018-03-11T06:11:55.808Z,32.50
2018-03-11T06:16:59.636Z,25.73
2018-03-11T06:22:02.481Z,24.63
2018-03-11T06:27:04.968Z,34.50
2018-03-11T06:32:07.420Z,30.33
2018-03-11T06:37:09.881Z,31.40
2018-03-11T06:42:12.355Z,27.83
2018-03-11T06:47:14.851Z,28.47
2018-03-11T06:52:17.378Z,29.37
2018-03-11T06:57:19.812Z,29.27
2018-03-11T07:02:22.268Z,24.67
2018-03-11T07:07:24.725Z,23.03
2018-03-11T07:12:27.318Z,20.97
2018-03-11T07:17:29.810Z,20.47
2018-03-11T07:22:32.285Z,18.50
2018-03-11T07:27:34.756Z,18.23
2018-03-11T07:32:37.223Z,17.33
2018-03-11T07:37:39.673Z,17.40
2018-03-11T07:42:42.136Z,18.27
2018-03-11T07:47:44.605Z,16.87
2018-03-11T07:52:47.105Z,15.77
2018-03-11T07:57:49.584Z,16.00
2018-03-11T08:02:52.161Z,16.40
2018-03-11T08:07:54.637Z,16.33
2018-03-11T08:12:57.111Z,15.50
2018-03-11T08:17:59.572Z,14.37
2018-03-11T08:23:02.021Z,14.03
2018-03-11T08:28:04.503Z,14.93
2018-03-11T08:33:06.953Z,14.97
2018-03-11T08:38:09.442Z,15.57
2018-03-11T08:43:11.910Z,15.47
2018-03-11T08:48:14.392Z,15.40
2018-03-11T08:53:16.869Z,14.40
2018-03-11T08:58:19.353Z,14.53
2018-03-11T09:03:21.820Z,14.40
2018-03-11T09:08:25.075Z,14.70
2018-03-11T09:13:27.573Z,14.03
2018-03-11T09:18:30.062Z,13.40
2018-03-11T09:23:32.578Z,14.20
2018-03-11T09:28:35.074Z,13.40
2018-03-11T09:33:41.530Z,13.67
2018-03-11T09:38:44.003Z,13.10
2018-03-11T09:43:46.489Z,13.17
2018-03-11T09:48:48.966Z,12.63
2018-03-11T09:53:51.477Z,14.50
2018-03-11T09:58:53.960Z,13.20
2018-03-11T10:03:56.476Z,12.40
2018-03-11T10:08:58.932Z,11.40
2018-03-11T10:14:01.430Z,10.83
2018-03-11T10:19:03.919Z,10.00
2018-03-11T10:24:06.409Z,9.07
2018-03-11T10:29:08.919Z,8.93
2018-03-11T10:34:11.478Z,7.97
2018-03-11T10:39:13.966Z,7.80
2018-03-11T10:44:16.476Z,8.70
2018-03-11T10:49:18.975Z,7.10
2018-03-11T10:54:21.469Z,7.83
2018-03-11T10:59:23.952Z,9.10
2018-03-11T11:04:32.026Z,6.83
2018-03-11T11:09:34.612Z,6.20
2018-03-11T11:14:37.090Z,7.70
2018-03-11T11:20:11.170Z,7.27
2018-03-11T11:25:31.039Z,7.33
2018-03-11T11:30:33.679Z,7.83
2018-03-11T11:35:36.344Z,6.37
2018-03-11T11:40:38.848Z,5.33
2018-03-11T11:45:41.314Z,6.03
2018-03-11T11:50:43.769Z,5.80
2018-03-11T11:55:46.231Z,6.70
2018-03-11T12:00:48.986Z,5.90
2018-03-11T12:05:53.424Z,5.37
2018-03-11T12:10:56.012Z,6.03
2018-03-11T12:15:58.484Z,5.77
2018-03-11T12:21:00.946Z,5.67
2018-03-11T12:26:05.292Z,6.30
2018-03-11T12:31:07.786Z,5.00
2018-03-11T12:36:10.259Z,4.37
2018-03-11T12:41:12.773Z,4.37
2018-03-11T12:46:15.237Z,4.90
2018-03-11T12:51:17.703Z,4.70
2018-03-11T12:56:23.012Z,5.53
2018-03-11T13:01:25.558Z,5.50
2018-03-11T13:06:28.043Z,5.30
2018-03-11T13:11:30.555Z,5.23
2018-03-11T13:16:32.991Z,5.97
2018-03-11T13:21:35.505Z,6.00
2018-03-11T13:26:37.960Z,5.73
2018-03-11T13:31:40.416Z,5.10
2018-03-11T13:36:42.898Z,6.40
2018-03-11T13:41:45.362Z,6.13
2018-03-11T13:46:56.747Z,5.80
2018-03-11T13:52:10.989Z,5.37
2018-03-11T14:03:07.193Z,5.10
2018-03-11T14:08:09.679Z,5.40
2018-03-11T14:13:12.153Z,5.33
2018-03-11T14:18:14.656Z,4.67
2018-03-11T14:23:17.129Z,5.43
2018-03-11T14:28:19.617Z,6.03
2018-03-11T14:33:22.709Z,5.60
2018-03-11T14:38:25.171Z,4.53
2018-03-11T14:43:27.860Z,4.10
2018-03-11T14:48:30.332Z,4.30
2018-03-11T14:53:32.972Z,3.77
2018-03-11T14:58:35.446Z,3.83
2018-03-11T15:03:37.907Z,3.30
2018-03-11T15:08:40.378Z,3.10
2018-03-11T15:13:42.888Z,3.70
2018-03-11T15:18:45.332Z,3.27
2018-03-11T15:23:47.804Z,3.40
2018-03-11T15:28:50.264Z,3.67
2018-03-11T15:33:52.741Z,2.93
2018-03-11T15:38:55.214Z,3.03
2018-03-11T15:43:57.650Z,3.17
2018-03-11T15:49:00.119Z,2.93
2018-03-11T15:54:02.594Z,2.90
2018-03-11T15:59:05.053Z,2.23
2018-03-11T16:04:07.606Z,2.43
2018-03-11T16:09:10.073Z,2.90
2018-03-11T16:14:13.713Z,3.17
2018-03-11T16:19:17.544Z,2.53
2018-03-11T16:24:28.382Z,2.40
2018-03-11T16:29:22.568Z,2.40
2018-03-11T16:34:25.117Z,2.37
2018-03-11T16:39:28.053Z,2.67
2018-03-11T16:44:31.108Z,2.40
2018-03-11T16:49:34.000Z,2.67
2018-03-11T16:54:36.553Z,2.50
2018-03-11T16:59:39.007Z,2.90
2018-03-11T17:04:41.500Z,3.00
2018-03-11T17:09:44.066Z,3.43
2018-03-11T17:14:46.544Z,3.23
2018-03-11T17:19:49.045Z,3.37
2018-03-11T17:24:51.511Z,4.53
2018-03-11T17:29:54.136Z,4.50
2018-03-11T17:34:56.965Z,5.13
2018-03-11T17:39:59.701Z,5.00
2018-03-11T17:45:02.249Z,4.20
2018-03-11T17:50:04.748Z,5.37
2018-03-11T17:55:07.299Z,5.47
2018-03-11T18:00:09.744Z,5.93
2018-03-11T18:05:12.289Z,4.67
2018-03-11T18:10:14.767Z,5.83
2018-03-11T18:15:17.271Z,5.47
2018-03-11T18:20:19.747Z,6.93
2018-03-11T18:25:22.254Z,6.80
2018-03-11T18:30:24.721Z,8.57
2018-03-11T18:35:27.187Z,30.23
2018-03-11T18:40:29.704Z,42.63
2018-03-11T18:45:32.193Z,16.17
2018-03-11T18:50:34.682Z,13.07
2018-03-11T18:55:37.185Z,8.80
2018-03-11T19:00:39.640Z,11.83
2018-03-11T19:05:42.129Z,12.20
2018-03-11T19:10:44.599Z,8.53
2018-03-11T19:15:47.228Z,9.03
2018-03-11T19:20:49.709Z,7.57
2018-03-11T19:25:53.493Z,6.90
2018-03-11T19:30:56.230Z,5.50
2018-03-11T19:35:58.707Z,5.33
2018-03-11T19:41:01.286Z,7.37
2018-03-11T19:46:05.135Z,7.23
2018-03-11T19:51:07.636Z,23.60
2018-03-11T19:56:10.083Z,7.67
2018-03-11T20:01:12.546Z,6.33
2018-03-11T20:06:15.031Z,6.20
2018-03-11T20:11:17.492Z,6.07
2018-03-11T20:16:19.989Z,6.50
2018-03-11T20:21:22.465Z,6.93
2018-03-11T20:26:24.927Z,6.40
2018-03-11T20:31:27.442Z,7.40
2018-03-11T20:36:29.929Z,7.30
2018-03-11T20:41:32.395Z,7.20
2018-03-11T20:46:34.842Z,7.10
2018-03-11T20:51:37.300Z,5.60
2018-03-11T20:56:39.773Z,6.67
2018-03-11T21:01:42.286Z,7.90
2018-03-11T21:06:45.216Z,7.50
2018-03-11T21:11:47.679Z,7.60
2018-03-11T21:16:50.147Z,8.10
2018-03-11T21:21:52.616Z,7.90
2018-03-11T21:26:55.119Z,9.43
2018-03-11T21:31:57.584Z,7.90
2018-03-11T21:37:00.051Z,7.43
2018-03-11T21:42:02.560Z,7.27
2018-03-11T21:47:05.049Z,7.00
2018-03-11T21:52:07.527Z,6.37
2018-03-11T21:57:10.002Z,6.67
2018-03-11T22:02:12.522Z,7.07
2018-03-11T22:07:14.965Z,7.10
2018-03-11T22:12:17.420Z,8.10
2018-03-11T22:17:19.884Z,7.10
2018-03-11T22:22:22.385Z,6.87
2018-03-11T22:27:24.844Z,8.67
2018-03-11T22:32:27.304Z,8.30
2018-03-11T22:37:29.780Z,8.73
2018-03-11T22:42:32.266Z,7.90
2018-03-11T22:47:34.763Z,9.03
2018-03-11T22:52:37.233Z,11.07
2018-03-11T22:57:39.713Z,9.60
2018-03-11T23:02:42.182Z,11.60
2018-03-11T23:07:44.688Z,10.30
2018-03-11T23:12:47.190Z,10.70
2018-03-11T23:17:49.636Z,10.07
2018-03-11T23:22:52.096Z,7.80
2018-03-11T23:27:54.579Z,9.53
2018-03-11T23:32:57.025Z,9.70
2018-03-11T23:37:59.484Z,7.13
2018-03-11T23:43:01.950Z,8.37
2018-03-11T23:48:04.428Z,10.17
2018-03-11T23:53:06.889Z,14.10
2018-03-11T23:58:09.373Z,15.60
